Time;durP1;ratioP1;P1;durP2;ratioP2;P2;SDS_P1;SDS_P2;PMS_P1;PMS_P2;Temp;Humidity;BMP_temperature;BMP_pressure;BME280_temperature;BME280_humidity;BME280_pressure;Samples;Min_cycle;Max_cycle;Signal;HPM_P1;HPM_P2
2022/08/10 00:02:41;;;;;;;4.85;1.58;;;14.00;99.90;;;;;;5011297;28;20213;-78
2022/08/10 00:05:12;;;;;;;2.47;1.00;;;14.10;99.90;;;;;;5010482;28;20206;-85
2022/08/10 00:07:43;;;;;;;4.50;1.10;;;14.30;99.90;;;;;;5005048;28;20199;-84
2022/08/10 00:10:17;;;;;;;1.90;0.77;;;14.30;99.90;;;;;;5021450;28;20199;-86
2022/08/10 00:12:48;;;;;;;2.42;0.90;;;14.30;99.90;;;;;;5015273;28;20199;-83
2022/08/10 00:15:21;;;;;;;4.78;1.00;;;14.40;99.90;;;;;;5009966;28;20670;-82
2022/08/10 00:17:52;;;;;;;3.95;1.00;;;14.40;99.90;;;;;;5010952;28;20201;-84
2022/08/10 00:20:22;;;;;;;5.07;1.02;;;14.40;99.90;;;;;;5004044;28;20230;-82
2022/08/10 00:22:53;;;;;;;5.90;1.10;;;14.40;99.90;;;;;;5013653;28;20211;-82
2022/08/10 00:25:25;;;;;;;3.78;0.82;;;14.30;99.90;;;;;;5015501;28;20209;-84
2022/08/10 00:27:56;;;;;;;4.97;1.17;;;14.20;99.90;;;;;;5005735;28;20651;-83
2022/08/10 00:30:27;;;;;;;2.85;0.90;;;14.30;99.90;;;;;;5006803;28;20209;-82
2022/08/10 00:32:57;;;;;;;2.92;0.93;;;14.40;99.90;;;;;;5011208;28;20198;-84
2022/08/10 00:35:28;;;;;;;2.10;0.80;;;14.40;99.90;;;;;;5019653;28;20233;-81
2022/08/10 00:37:59;;;;;;;3.42;1.08;;;14.50;99.90;;;;;;5014836;28;20325;-86
2022/08/10 00:40:32;;;;;;;3.65;1.02;;;14.40;99.90;;;;;;5011294;28;20211;-84
2022/08/10 00:43:03;;;;;;;6.43;1.08;;;14.40;99.90;;;;;;5010261;28;20654;-79
2022/08/10 00:45:33;;;;;;;2.35;1.08;;;14.50;99.90;;;;;;5000742;28;20660;-78
2022/08/10 00:48:06;;;;;;;1.65;0.65;;;14.60;99.90;;;;;;5015636;28;20205;-82
2022/08/10 00:50:40;;;;;;;3.25;1.20;;;14.60;99.90;;;;;;5004466;28;20198;-80
2022/08/10 00:53:11;;;;;;;3.20;0.80;;;14.60;99.90;;;;;;5014232;28;20202;-85
2022/08/10 00:55:44;;;;;;;4.53;1.20;;;14.60;99.90;;;;;;5008923;28;20287;-83
2022/08/10 00:58:16;;;;;;;2.75;1.00;;;14.70;99.90;;;;;;5010655;28;20202;-82
2022/08/10 01:00:47;;;;;;;3.70;0.77;;;14.70;99.90;;;;;;5012673;28;20221;-86
2022/08/10 01:03:17;;;;;;;6.05;1.00;;;14.70;99.90;;;;;;5025167;28;20186;-83
2022/08/10 01:05:56;;;;;;;5.90;1.20;;;15.00;99.90;;;;;;5002311;28;20905;-81
2022/08/10 01:08:37;;;;;;;3.60;0.60;;;15.60;99.90;;;;;;5019286;28;20221;-84
2022/08/10 01:11:13;;;;;;;3.83;0.63;;;15.90;99.90;;;;;;5011632;28;20596;-87
2022/08/10 01:13:50;;;;;;;4.82;0.60;;;15.90;99.90;;;;;;5010930;28;20209;-84
2022/08/10 01:16:26;;;;;;;1.98;0.52;;;15.70;99.90;;;;;;5015490;28;20202;-83
2022/08/10 01:19:03;;;;;;;2.13;0.70;;;15.50;99.90;;;;;;5015741;28;20191;-85
2022/08/10 01:22:06;;;;;;;2.75;0.70;;;15.50;99.90;;;;;;5013362;28;20238;-86
2022/08/10 01:25:00;;;;;;;4.60;0.82;;;15.80;99.90;;;;;;5004498;28;20202;-81
2022/08/10 01:27:40;;;;;;;3.90;0.93;;;15.70;99.90;;;;;;5015576;28;20201;-81
2022/08/10 01:30:15;;;;;;;2.25;0.60;;;15.60;99.90;;;;;;5016353;28;20194;-88
2022/08/10 01:32:50;;;;;;;3.58;0.68;;;15.70;99.90;;;;;;5014926;28;20194;-84
2022/08/10 01:35:29;;;;;;;5.53;1.20;;;16.00;99.90;;;;;;5044625;22;20248;-77
2022/08/10 01:38:07;;;;;;;5.78;0.60;;;16.20;99.90;;;;;;5025191;28;20665;-76
2022/08/10 01:40:42;;;;;;;5.22;1.00;;;16.20;99.90;;;;;;5020843;28;20219;-78
2022/08/10 01:43:15;;;;;;;3.92;0.60;;;16.40;99.90;;;;;;5029755;28;20205;-76
2022/08/10 01:45:51;;;;;;;4.38;0.60;;;16.60;99.90;;;;;;5023564;28;20205;-73
2022/08/10 01:48:28;;;;;;;2.97;0.60;;;16.70;99.90;;;;;;5025437;28;20213;-71
2022/08/10 01:51:08;;;;;;;2.83;0.60;;;16.90;99.90;;;;;;5026868;28;20661;-72
2022/08/10 01:53:45;;;;;;;2.60;0.68;;;16.80;99.90;;;;;;5025403;28;20264;-74
2022/08/10 01:56:19;;;;;;;2.30;0.70;;;16.90;99.90;;;;;;5025307;28;20248;-72
2022/08/10 01:58:52;;;;;;;2.47;0.73;;;16.90;99.90;;;;;;5026518;28;20212;-71
2022/08/10 02:01:28;;;;;;;5.03;0.80;;;16.70;99.90;;;;;;5028644;28;20214;-72
2022/08/10 02:04:03;;;;;;;2.78;0.70;;;16.50;99.90;;;;;;5026045;28;20199;-72
2022/08/10 02:06:38;;;;;;;4.82;1.05;;;16.30;99.90;;;;;;5029455;28;20202;-76
2022/08/10 02:09:12;;;;;;;1.90;0.70;;;16.20;99.90;;;;;;5020797;28;20413;-73
2022/08/10 02:11:43;;;;;;;3.55;0.70;;;16.10;99.90;;;;;;5027016;28;20212;-73
2022/08/10 02:14:16;;;;;;;3.17;0.50;;;16.30;99.90;;;;;;5027814;28;20680;-75
2022/08/10 02:16:52;;;;;;;2.72;0.70;;;16.50;99.90;;;;;;5028527;28;20194;-77
2022/08/10 02:19:27;;;;;;;5.03;0.80;;;16.50;99.90;;;;;;5029804;28;20198;-76
2022/08/10 02:22:00;;;;;;;2.40;0.50;;;16.50;99.90;;;;;;5031657;28;20229;-79
2022/08/10 02:24:31;;;;;;;3.90;0.50;;;16.40;99.90;;;;;;5034723;28;20194;-78
2022/08/10 02:27:04;;;;;;;3.55;0.60;;;16.40;99.90;;;;;;5030819;28;20656;-78
2022/08/10 02:29:35;;;;;;;4.05;0.70;;;16.40;99.90;;;;;;5026233;28;20289;-78
2022/08/10 02:32:10;;;;;;;1.02;0.32;;;16.30;99.90;;;;;;5030137;28;20235;-79
2022/08/10 02:34:42;;;;;;;2.50;0.45;;;16.20;99.90;;;;;;5025333;28;20697;-79
2022/08/10 02:37:14;;;;;;;3.85;0.60;;;16.10;99.90;;;;;;5007060;28;20290;-78
2022/08/10 02:39:45;;;;;;;3.40;0.90;;;16.10;99.90;;;;;;5010732;28;20536;-73
2022/08/10 02:42:24;;;;;;;1.92;0.70;;;16.00;99.90;;;;;;5014019;28;20215;-77
2022/08/10 02:45:01;;;;;;;4.38;0.90;;;16.30;99.90;;;;;;5008838;28;20628;-78
2022/08/10 02:47:37;;;;;;;5.93;0.98;;;16.40;99.90;;;;;;5010583;28;20201;-78
2022/08/10 02:50:14;;;;;;;4.70;0.85;;;16.20;99.90;;;;;;5009789;28;20211;-78
2022/08/10 02:52:48;;;;;;;2.45;0.65;;;16.10;99.90;;;;;;5011813;28;20203;-78
2022/08/10 02:55:35;;;;;;;1.92;0.50;;;16.00;99.90;;;;;;5009879;28;20203;-78
2022/08/10 02:58:12;;;;;;;1.75;0.52;;;16.30;99.90;;;;;;5009565;28;20226;-77
2022/08/10 03:00:46;;;;;;;2.63;0.47;;;16.60;99.90;;;;;;5011889;28;20653;-78
2022/08/10 03:03:23;;;;;;;1.65;0.50;;;16.80;99.90;;;;;;5008514;28;20199;-77
2022/08/10 03:05:56;;;;;;;2.92;0.52;;;16.70;99.90;;;;;;5011050;28;20198;-77
2022/08/10 03:08:32;;;;;;;5.07;0.70;;;16.40;99.90;;;;;;5010467;28;20207;-78
2022/08/10 03:11:06;;;;;;;1.75;0.50;;;16.30;99.90;;;;;;5008404;28;20202;-78
2022/08/10 03:13:39;;;;;;;1.70;0.52;;;16.10;99.90;;;;;;5011948;28;20202;-77
2022/08/10 03:16:11;;;;;;;2.25;0.57;;;15.90;99.90;;;;;;5010172;28;20206;-79
2022/08/10 03:18:45;;;;;;;1.95;0.47;;;15.90;99.90;;;;;;5010382;28;20206;-80
2022/08/10 03:21:18;;;;;;;0.65;0.43;;;15.90;99.90;;;;;;5008819;28;20288;-78
2022/08/10 03:23:51;;;;;;;2.65;0.50;;;16.10;99.90;;;;;;5009318;28;20195;-77
2022/08/10 03:26:22;;;;;;;2.50;0.50;;;16.20;99.90;;;;;;5007273;28;20712;-78
2022/08/10 03:28:55;;;;;;;1.38;0.43;;;16.20;99.90;;;;;;5010519;28;20674;-80
2022/08/10 03:31:26;;;;;;;1.80;0.40;;;16.20;99.90;;;;;;5010879;28;20202;-81
2022/08/10 03:34:00;;;;;;;2.83;0.50;;;16.10;99.90;;;;;;5006687;28;20994;-78
2022/08/10 03:36:31;;;;;;;2.47;0.50;;;16.10;99.90;;;;;;5008647;28;20238;-81
2022/08/10 03:39:02;;;;;;;2.25;0.35;;;16.30;99.90;;;;;;5012412;28;20209;-80
2022/08/10 03:41:36;;;;;;;2.78;0.68;;;16.40;99.90;;;;;;5009015;28;20225;-78
2022/08/10 03:44:08;;;;;;;0.80;0.40;;;16.50;99.90;;;;;;5012087;28;20206;-75
2022/08/10 03:46:42;;;;;;;2.35;0.50;;;16.60;99.90;;;;;;5002124;28;20206;-76
2022/08/10 03:49:16;;;;;;;3.15;0.65;;;16.70;99.90;;;;;;5008783;28;20199;-79
2022/08/10 03:51:48;;;;;;;2.08;0.43;;;16.80;99.90;;;;;;5005828;28;20199;-77
2022/08/10 03:54:19;;;;;;;4.47;0.50;;;16.60;99.90;;;;;;5002454;28;20666;-75
2022/08/10 03:56:50;;;;;;;1.98;0.50;;;16.30;99.90;;;;;;5000427;28;20214;-78
2022/08/10 03:59:21;;;;;;;5.97;0.60;;;16.00;99.90;;;;;;5014134;28;20649;-78
2022/08/10 04:01:53;;;;;;;3.47;0.60;;;15.80;99.90;;;;;;5009322;28;20218;-79
2022/08/10 04:04:27;;;;;;;2.33;0.60;;;15.80;99.90;;;;;;5006808;28;21075;-79
2022/08/10 04:06:59;;;;;;;1.95;0.50;;;15.90;99.90;;;;;;5003802;28;20199;-78
2022/08/10 04:09:30;;;;;;;1.85;0.40;;;15.90;99.90;;;;;;5008331;28;20203;-77
2022/08/10 04:12:01;;;;;;;3.42;0.40;;;16.00;99.90;;;;;;4999525;28;20206;-78
2022/08/10 04:14:31;;;;;;;0.95;0.40;;;16.10;99.90;;;;;;4999101;28;20232;-79
2022/08/10 04:17:02;;;;;;;2.00;0.40;;;16.10;99.90;;;;;;5004898;28;20199;-78
2022/08/10 04:19:42;;;;;;;3.05;0.38;;;16.00;99.90;;;;;;5006161;28;20203;-79
2022/08/10 04:22:17;;;;;;;0.93;0.30;;;16.00;99.90;;;;;;5007690;28;20211;-80
2022/08/10 04:24:49;;;;;;;0.10;0.10;;;16.00;99.90;;;;;;5005258;28;20680;-78
2022/08/10 04:27:20;;;;;;;2.42;0.50;;;15.90;99.90;;;;;;5003872;28;20203;-77
2022/08/10 04:29:54;;;;;;;1.45;0.43;;;15.90;99.90;;;;;;5003438;28;20202;-80
2022/08/10 04:32:25;;;;;;;0.77;0.30;;;15.90;99.90;;;;;;5004873;28;20709;-79
2022/08/10 04:35:00;;;;;;;1.73;0.35;;;15.90;99.90;;;;;;5009282;28;20223;-79
2022/08/10 04:37:32;;;;;;;1.33;0.45;;;16.00;99.90;;;;;;5006231;28;20206;-75
2022/08/10 04:40:04;;;;;;;0.98;0.30;;;16.00;99.90;;;;;;5006335;28;20195;-75
2022/08/10 04:42:35;;;;;;;0.75;0.20;;;15.90;99.90;;;;;;5003751;28;20343;-77
2022/08/10 04:45:10;;;;;;;0.20;0.20;;;15.90;99.90;;;;;;5003512;28;20205;-81
2022/08/10 04:47:41;;;;;;;0.85;0.20;;;15.90;99.90;;;;;;5007598;28;20292;-80
2022/08/10 04:50:14;;;;;;;0.65;0.30;;;16.00;99.90;;;;;;5006307;28;20195;-76
2022/08/10 04:52:45;;;;;;;0.98;0.20;;;16.00;99.90;;;;;;5009398;28;20198;-78
2022/08/10 04:55:16;;;;;;;0.57;0.50;;;16.00;99.90;;;;;;5005858;28;20302;-76
2022/08/10 04:57:46;;;;;;;1.38;0.40;;;16.10;99.90;;;;;;5009615;28;20206;-80
2022/08/10 05:00:17;;;;;;;1.38;0.40;;;16.10;99.90;;;;;;5002897;28;20201;-74
2022/08/10 05:02:49;;;;;;;1.55;0.30;;;16.00;99.90;;;;;;5009121;28;20226;-77
2022/08/10 05:05:22;;;;;;;2.75;0.30;;;15.90;99.90;;;;;;5009013;28;20212;-79
2022/08/10 05:07:52;;;;;;;1.10;0.40;;;15.90;99.90;;;;;;5012874;28;20214;-78
2022/08/10 05:10:23;;;;;;;1.08;0.38;;;15.80;99.90;;;;;;5013237;28;20681;-76
2022/08/10 05:12:54;;;;;;;4.75;0.60;;;15.80;99.90;;;;;;5008074;28;20198;-77
2022/08/10 05:15:26;;;;;;;0.75;0.35;;;15.90;99.90;;;;;;5010713;28;20190;-76
2022/08/10 05:17:56;;;;;;;1.02;0.40;;;16.00;99.90;;;;;;5013323;28;20207;-79
2022/08/10 05:20:29;;;;;;;1.38;0.30;;;15.90;99.90;;;;;;5010819;28;20196;-76
2022/08/10 05:22:59;;;;;;;3.08;0.30;;;15.90;99.90;;;;;;5012825;28;20219;-78
2022/08/10 05:25:30;;;;;;;2.80;0.50;;;16.00;99.90;;;;;;5001890;28;20708;-78
2022/08/10 05:28:01;;;;;;;3.42;0.60;;;15.90;99.90;;;;;;5008874;28;20191;-77
2022/08/10 05:30:32;;;;;;;1.38;0.50;;;16.00;99.90;;;;;;5009659;28;20199;-76
2022/08/10 05:33:03;;;;;;;2.08;0.50;;;15.90;99.90;;;;;;5010865;28;20222;-78
2022/08/10 05:35:37;;;;;;;1.58;0.50;;;15.70;99.90;;;;;;5012354;28;20235;-77
2022/08/10 05:38:10;;;;;;;2.92;0.77;;;15.50;99.90;;;;;;5011125;28;20570;-78
2022/08/10 05:40:42;;;;;;;2.72;0.40;;;15.40;99.90;;;;;;5012068;28;20230;-79
2022/08/10 05:43:13;;;;;;;2.95;0.50;;;15.40;99.90;;;;;;5002820;28;20218;-79
2022/08/10 05:45:43;;;;;;;1.00;0.45;;;15.40;99.90;;;;;;5005351;28;20666;-79
2022/08/10 05:48:14;;;;;;;1.55;0.40;;;15.40;99.90;;;;;;5012602;28;20209;-78
2022/08/10 05:50:47;;;;;;;1.25;0.40;;;15.30;99.90;;;;;;5010940;28;20202;-76
2022/08/10 05:53:18;;;;;;;3.00;0.60;;;15.40;99.90;;;;;;5014598;28;20194;-78
2022/08/10 05:55:48;;;;;;;4.00;0.50;;;15.40;99.90;;;;;;5013382;28;20226;-78
2022/08/10 05:58:19;;;;;;;1.33;0.43;;;15.50;99.90;;;;;;5016821;28;20618;-76
2022/08/10 06:00:53;;;;;;;0.70;0.40;;;15.50;99.90;;;;;;5014999;28;20206;-79
2022/08/10 06:03:27;;;;;;;0.93;0.40;;;15.50;99.90;;;;;;5008291;28;20249;-77
2022/08/10 06:06:02;;;;;;;2.95;0.60;;;15.50;99.90;;;;;;5012613;28;20221;-78
2022/08/10 06:08:36;;;;;;;1.10;0.40;;;15.50;99.90;;;;;;5014628;28;20193;-79
2022/08/10 06:11:11;;;;;;;1.63;0.38;;;15.50;99.90;;;;;;5016021;28;20198;-78
2022/08/10 06:16:34;;;;;;;2.65;0.30;;;15.20;99.90;;;;;;5006041;28;20205;-78
2022/08/10 06:19:05;;;;;;;1.48;0.40;;;15.00;99.90;;;;;;5010817;28;20524;-77
2022/08/10 06:21:38;;;;;;;2.13;0.40;;;14.90;99.90;;;;;;5012937;28;20207;-75
2022/08/10 06:24:11;;;;;;;1.50;0.43;;;14.80;99.90;;;;;;5011522;28;20218;-79
2022/08/10 06:26:42;;;;;;;2.58;0.40;;;14.60;99.90;;;;;;5014352;28;20286;-81
2022/08/10 06:29:15;;;;;;;2.20;0.50;;;14.50;99.90;;;;;;5011664;28;20674;-82
2022/08/10 06:31:50;;;;;;;0.85;0.50;;;14.50;99.90;;;;;;5009720;28;20214;-79
2022/08/10 06:34:25;;;;;;;1.23;0.60;;;14.60;99.90;;;;;;5014756;28;20692;-79
2022/08/10 06:36:59;;;;;;;1.10;0.43;;;14.60;99.90;;;;;;5015056;28;20249;-73
2022/08/10 06:39:29;;;;;;;4.60;0.65;;;14.60;99.90;;;;;;5003437;28;20207;-79
2022/08/10 06:42:06;;;;;;;1.95;0.60;;;14.60;99.90;;;;;;5001360;28;20331;-80
2022/08/10 06:44:43;;;;;;;2.78;0.55;;;14.60;99.90;;;;;;5010770;28;20281;-75
2022/08/10 06:47:16;;;;;;;3.95;0.68;;;14.60;99.90;;;;;;5012252;28;20203;-79
2022/08/10 06:49:49;;;;;;;0.88;0.68;;;14.50;99.90;;;;;;4996377;28;20192;-77
2022/08/10 06:52:23;;;;;;;2.03;0.60;;;14.40;99.90;;;;;;5006943;28;20198;-77
2022/08/10 06:54:57;;;;;;;1.98;0.70;;;14.30;99.90;;;;;;5013732;28;20712;-74
2022/08/10 06:57:32;;;;;;;1.17;0.55;;;14.20;99.90;;;;;;5007530;28;20191;-78
2022/08/10 07:00:05;;;;;;;2.85;0.63;;;14.10;99.90;;;;;;5010699;28;20206;-77
2022/08/10 07:02:43;;;;;;;3.58;0.70;;;14.10;99.90;;;;;;4996979;28;20274;-78
2022/08/10 07:05:20;;;;;;;2.05;0.65;;;14.00;99.90;;;;;;5011774;28;20202;-81
2022/08/10 07:07:54;;;;;;;1.17;0.47;;;13.90;99.90;;;;;;5007280;28;20195;-79
2022/08/10 07:10:26;;;;;;;2.75;0.80;;;13.90;99.90;;;;;;5015396;28;20187;-78
2022/08/10 07:13:00;;;;;;;2.47;0.40;;;13.80;99.90;;;;;;5013567;28;20286;-78
2022/08/10 07:15:32;;;;;;;2.08;0.40;;;13.80;99.90;;;;;;5007671;28;20198;-77
2022/08/10 07:18:04;;;;;;;4.15;0.60;;;13.70;99.90;;;;;;5014691;28;20191;-78
2022/08/10 07:20:37;;;;;;;1.88;0.43;;;13.60;99.90;;;;;;5010394;28;20203;-79
2022/08/10 07:23:11;;;;;;;0.75;0.40;;;13.60;99.90;;;;;;5010690;28;20241;-78
2022/08/10 07:25:43;;;;;;;1.15;0.50;;;13.60;99.90;;;;;;5013481;28;20194;-78
2022/08/10 07:28:15;;;;;;;1.27;0.40;;;13.50;99.90;;;;;;5012245;28;20198;-79
2022/08/10 07:30:47;;;;;;;2.13;0.50;;;13.40;99.90;;;;;;5000096;28;20218;-79
2022/08/10 07:33:20;;;;;;;1.42;0.55;;;13.40;99.90;;;;;;5015040;28;20196;-77
2022/08/10 07:38:28;;;;;;;5.10;0.70;;;13.30;99.90;;;;;;5004527;28;20215;-84
2022/08/10 07:41:02;;;;;;;2.28;0.70;;;13.30;99.90;;;;;;5000470;28;20188;-86
2022/08/10 07:43:37;;;;;;;4.88;0.70;;;13.30;99.90;;;;;;5005667;28;20269;-87
2022/08/10 07:46:12;;;;;;;4.13;0.80;;;13.20;99.90;;;;;;5008784;28;20661;-84
2022/08/10 07:48:48;;;;;;;2.50;0.80;;;13.20;99.90;;;;;;5007131;28;20547;-84
2022/08/10 07:51:20;;;;;;;1.33;1.08;;;13.20;99.90;;;;;;5009342;28;20194;-87
2022/08/10 07:53:57;;;;;;;3.78;1.10;;;13.10;99.90;;;;;;5012905;28;20205;-85
2022/08/10 07:56:30;;;;;;;2.33;1.10;;;13.10;99.90;;;;;;5003378;28;20192;-84
2022/08/10 07:59:07;;;;;;;4.05;0.90;;;13.10;99.90;;;;;;5006270;28;20657;-83
2022/08/10 08:01:42;;;;;;;2.33;1.02;;;13.00;99.90;;;;;;5006317;28;20651;-86
2022/08/10 08:04:16;;;;;;;2.00;0.98;;;13.00;99.90;;;;;;5009947;28;20222;-81
2022/08/10 08:06:48;;;;;;;2.13;1.08;;;12.90;99.90;;;;;;5007518;28;20199;-79
2022/08/10 08:09:21;;;;;;;3.28;1.25;;;12.90;99.90;;;;;;5005928;28;20199;-78
2022/08/10 08:11:53;;;;;;;3.25;1.10;;;12.80;99.90;;;;;;5004350;28;20210;-81
2022/08/10 08:14:25;;;;;;;4.32;1.30;;;12.80;99.90;;;;;;5008816;28;20549;-75
2022/08/10 08:16:56;;;;;;;3.15;1.42;;;12.80;99.90;;;;;;5011285;28;20214;-78
2022/08/10 08:19:28;;;;;;;3.35;1.25;;;12.80;99.90;;;;;;5008393;28;20199;-76
2022/08/10 08:22:01;;;;;;;4.28;1.42;;;12.70;99.90;;;;;;5007476;28;20199;-76
2022/08/10 08:24:36;;;;;;;4.88;1.60;;;12.70;99.90;;;;;;5000133;28;20613;-77
2022/08/10 08:27:08;;;;;;;2.90;1.40;;;12.70;99.90;;;;;;5003014;28;20191;-78
2022/08/10 08:29:42;;;;;;;6.32;1.75;;;12.70;99.90;;;;;;5011011;28;20257;-78
2022/08/10 08:32:14;;;;;;;7.07;1.98;;;12.70;99.90;;;;;;5006881;28;20205;-76
2022/08/10 08:34:47;;;;;;;6.75;2.35;;;12.70;99.90;;;;;;5005411;28;20207;-76
2022/08/10 08:37:20;;;;;;;4.75;2.28;;;12.60;99.90;;;;;;5021173;28;20238;-79
2022/08/10 08:39:54;;;;;;;7.22;2.30;;;12.60;99.90;;;;;;5024357;28;20188;-78
2022/08/10 08:42:47;;;;;;;5.97;2.15;;;12.60;99.90;;;;;;5025656;28;20194;-77
2022/08/10 08:45:30;;;;;;;4.82;2.10;;;12.60;99.90;;;;;;5026430;28;20648;-83
2022/08/10 08:48:32;;;;;;;6.47;2.45;;;12.60;99.90;;;;;;5028147;28;20209;-78
2022/08/10 08:51:19;;;;;;;4.50;2.15;;;12.50;99.90;;;;;;5031278;28;20198;-76
2022/08/10 08:54:01;;;;;;;6.47;2.38;;;12.50;99.90;;;;;;5032296;28;20233;-79
2022/08/10 08:56:42;;;;;;;6.22;2.35;;;12.50;99.90;;;;;;5018828;28;20641;-77
2022/08/10 08:59:32;;;;;;;7.30;2.35;;;12.50;99.90;;;;;;5033223;28;20249;-77
2022/08/10 09:02:19;;;;;;;14.00;8.57;;;12.50;99.90;;;;;;5026410;28;20630;-75
2022/08/10 09:05:19;;;;;;;13.70;3.78;;;12.60;99.90;;;;;;5025726;28;20684;-77
2022/08/10 09:08:04;;;;;;;13.57;6.20;;;12.60;99.90;;;;;;5025270;28;20198;-76
2022/08/10 09:10:47;;;;;;;9.00;3.83;;;12.60;99.90;;;;;;5030603;28;20198;-76
2022/08/10 09:13:28;;;;;;;5.60;3.13;;;12.60;99.90;;;;;;5030042;28;20225;-77
2022/08/10 09:16:16;;;;;;;8.70;3.33;;;12.60;99.90;;;;;;5027554;28;20676;-79
2022/08/10 09:18:54;;;;;;;5.20;2.60;;;12.60;99.90;;;;;;5023832;28;20336;-80
2022/08/10 09:21:34;;;;;;;5.70;2.70;;;12.70;99.90;;;;;;5026096;28;20208;-79
2022/08/10 09:24:12;;;;;;;5.07;2.30;;;12.70;99.90;;;;;;5024087;28;20301;-79
2022/08/10 09:26:50;;;;;;;5.93;2.30;;;12.70;99.90;;;;;;5030803;28;20198;-77
2022/08/10 09:29:28;;;;;;;5.50;2.28;;;12.70;99.90;;;;;;5032485;28;20186;-77
2022/08/10 09:32:10;;;;;;;5.65;2.25;;;12.70;99.90;;;;;;5029296;28;20697;-76
2022/08/10 09:34:57;;;;;;;7.22;2.40;;;12.70;99.90;;;;;;5030301;28;20706;-82
2022/08/10 09:37:34;;;;;;;7.35;2.70;;;12.70;99.90;;;;;;5026419;28;20269;-77
2022/08/10 09:40:19;;;;;;;7.30;2.65;;;12.70;99.90;;;;;;5030910;28;20205;-77
2022/08/10 09:42:58;;;;;;;6.25;2.60;;;12.70;99.90;;;;;;5020520;28;20202;-81
2022/08/10 09:45:40;;;;;;;8.45;2.85;;;12.70;99.90;;;;;;5029172;28;20201;-76
2022/08/10 09:48:17;;;;;;;6.05;2.40;;;12.70;99.90;;;;;;5032277;28;20646;-80
2022/08/10 09:50:57;;;;;;;5.70;2.50;;;12.70;99.90;;;;;;5029315;28;20201;-79
2022/08/10 09:54:06;;;;;;;7.40;2.90;;;12.70;99.90;;;;;;5022596;28;20193;-76
2022/08/10 09:56:48;;;;;;;9.80;2.78;;;12.70;99.90;;;;;;5030181;28;20205;-80
2022/08/10 09:59:30;;;;;;;8.32;2.92;;;12.70;99.90;;;;;;5031094;28;20230;-81
2022/08/10 10:02:20;;;;;;;6.40;2.72;;;12.70;99.90;;;;;;5030336;28;20199;-79
2022/08/10 10:05:05;;;;;;;6.57;2.80;;;12.60;99.90;;;;;;5028242;28;20688;-80
2022/08/10 10:07:39;;;;;;;5.85;3.08;;;12.60;99.90;;;;;;5030172;28;20230;-78
2022/08/10 10:10:15;;;;;;;6.47;2.80;;;12.60;99.90;;;;;;5030794;28;20209;-77
2022/08/10 10:12:54;;;;;;;6.70;2.78;;;12.50;99.90;;;;;;5030090;28;20256;-80
2022/08/10 10:15:36;;;;;;;7.88;3.13;;;12.50;99.90;;;;;;5031193;28;20212;-78
2022/08/10 10:18:42;;;;;;;6.38;3.00;;;12.50;99.90;;;;;;5027547;28;20702;-82
2022/08/10 10:21:23;;;;;;;8.95;3.65;;;12.40;99.90;;;;;;5018127;28;20224;-81
2022/08/10 10:24:04;;;;;;;6.05;3.47;;;12.40;99.90;;;;;;5029233;28;20218;-76
2022/08/10 10:26:51;;;;;;;8.35;3.50;;;12.30;99.90;;;;;;5031613;28;20673;-79
2022/08/10 10:29:37;;;;;;;7.70;3.78;;;12.30;99.90;;;;;;5029844;28;20194;-77
2022/08/10 10:32:23;;;;;;;9.38;3.72;;;12.30;99.90;;;;;;5027453;28;20205;-77
2022/08/10 10:35:02;;;;;;;9.65;3.65;;;12.20;99.90;;;;;;5028142;28;20205;-78
2022/08/10 10:37:35;;;;;;;9.35;3.80;;;12.20;99.90;;;;;;5024573;28;20238;-81
2022/08/10 10:40:07;;;;;;;11.43;4.30;;;12.20;99.90;;;;;;5025373;28;20194;-80
2022/08/10 10:42:45;;;;;;;9.35;4.03;;;12.10;99.90;;;;;;5033784;28;20723;-80
2022/08/10 10:45:21;;;;;;;8.90;4.10;;;12.10;99.90;;;;;;5038037;28;20712;-81
2022/08/10 10:48:09;;;;;;;8.88;4.78;;;12.00;99.90;;;;;;5034680;28;20304;-80
2022/08/10 10:50:57;;;;;;;11.30;4.38;;;12.00;99.90;;;;;;5028131;28;20202;-78
2022/08/10 10:53:34;;;;;;;8.80;4.28;;;12.00;99.90;;;;;;5033815;28;20198;-84
2022/08/10 10:56:18;;;;;;;10.10;3.92;;;11.90;99.90;;;;;;5031814;28;20204;-87
2022/08/10 10:59:00;;;;;;;8.30;4.13;;;11.90;99.90;;;;;;5030876;28;20202;-79
2022/08/10 11:01:41;;;;;;;7.22;4.13;;;11.90;99.90;;;;;;5023369;28;20230;-84
2022/08/10 11:04:26;;;;;;;6.90;3.63;;;11.90;99.90;;;;;;5034343;28;20210;-83
2022/08/10 11:07:11;;;;;;;8.20;4.30;;;11.80;99.90;;;;;;5031940;28;20713;-82
2022/08/10 11:09:56;;;;;;;9.77;4.60;;;11.80;99.90;;;;;;5034060;28;20601;-84
2022/08/10 11:12:38;;;;;;;9.82;4.60;;;11.80;99.90;;;;;;5033588;28;20240;-84
2022/08/10 11:15:17;;;;;;;9.02;4.85;;;11.70;99.90;;;;;;5033291;28;20716;-84
2022/08/10 11:17:53;;;;;;;9.40;4.88;;;11.70;99.90;;;;;;5031296;28;20206;-86
2022/08/10 11:20:28;;;;;;;12.02;4.88;;;11.70;99.90;;;;;;5027941;28;20202;-86
2022/08/10 11:23:14;;;;;;;8.57;5.35;;;11.60;99.90;;;;;;5030113;28;20202;-82
2022/08/10 11:25:49;;;;;;;9.43;4.90;;;11.60;99.90;;;;;;5034034;28;20206;-85
2022/08/10 11:28:27;;;;;;;9.05;5.40;;;11.60;99.90;;;;;;5032711;28;20247;-82
2022/08/10 11:31:06;;;;;;;11.13;6.03;;;11.60;99.90;;;;;;5032785;28;20205;-83
2022/08/10 11:33:43;;;;;;;10.30;5.72;;;11.60;99.90;;;;;;5031843;28;20198;-80
2022/08/10 11:36:26;;;;;;;10.43;5.47;;;11.50;99.90;;;;;;5023504;28;20215;-84
2022/08/10 11:39:05;;;;;;;11.85;5.95;;;11.50;99.90;;;;;;5031596;28;20653;-85
2022/08/10 11:41:48;;;;;;;11.88;6.00;;;11.50;99.90;;;;;;5032249;28;20206;-86
2022/08/10 11:44:28;;;;;;;13.18;6.10;;;11.50;99.90;;;;;;5031559;28;20218;-83
2022/08/10 11:47:08;;;;;;;11.27;5.88;;;11.40;99.90;;;;;;5032127;28;20224;-76
2022/08/10 11:49:46;;;;;;;10.88;5.95;;;11.40;99.90;;;;;;5033338;28;20201;-83
2022/08/10 11:52:22;;;;;;;12.05;5.72;;;11.30;99.90;;;;;;5033393;28;20198;-85
2022/08/10 11:54:57;;;;;;;10.32;5.95;;;11.30;99.90;;;;;;5022624;28;20206;-86
2022/08/10 11:57:32;;;;;;;9.65;5.93;;;11.20;99.90;;;;;;5031459;28;20206;-85
2022/08/10 12:00:01;;;;;;;12.25;5.75;;;11.20;99.90;;;;;;5019709;28;20209;-86
2022/08/10 12:02:38;;;;;;;13.73;6.95;;;11.20;99.90;;;;;;5033636;28;20653;-85
2022/08/10 12:05:12;;;;;;;10.82;6.65;;;11.20;99.90;;;;;;5031988;28;20218;-86
2022/08/10 12:07:47;;;;;;;13.27;6.80;;;11.20;99.90;;;;;;5032690;28;20198;-82
2022/08/10 12:10:22;;;;;;;16.50;7.57;;;11.20;99.90;;;;;;5032192;28;20293;-84
2022/08/10 12:12:56;;;;;;;13.77;7.30;;;11.20;99.90;;;;;;5032801;28;20201;-86
2022/08/10 12:15:34;;;;;;;10.95;7.32;;;11.20;99.90;;;;;;5033855;28;20212;-83
2022/08/10 12:18:08;;;;;;;14.00;7.65;;;11.20;99.90;;;;;;5030115;28;20229;-84
2022/08/10 12:20:42;;;;;;;13.07;7.40;;;11.20;99.90;;;;;;5030065;28;20594;-85
2022/08/10 12:23:19;;;;;;;14.35;7.93;;;11.20;99.90;;;;;;5029501;28;20185;-86
2022/08/10 12:26:01;;;;;;;14.85;7.65;;;11.20;99.90;;;;;;5032503;28;20247;-85
2022/08/10 12:28:38;;;;;;;12.77;7.30;;;11.10;99.90;;;;;;5033835;28;20313;-83
2022/08/10 12:31:11;;;;;;;11.55;7.00;;;11.10;99.90;;;;;;5033710;28;20222;-83
2022/08/10 12:33:50;;;;;;;12.57;7.28;;;11.10;99.90;;;;;;5029149;28;20273;-82
2022/08/10 12:36:27;;;;;;;11.63;7.32;;;11.00;99.90;;;;;;5025799;28;20225;-76
2022/08/10 12:39:08;;;;;;;11.90;7.22;;;11.10;99.90;;;;;;5027194;28;20202;-84
2022/08/10 12:41:46;;;;;;;13.63;7.53;;;11.00;99.90;;;;;;5024251;28;20205;-77
2022/08/10 12:44:22;;;;;;;10.65;6.80;;;11.00;99.90;;;;;;5031971;28;20218;-85
2022/08/10 12:46:58;;;;;;;10.55;6.63;;;11.00;99.90;;;;;;5017718;28;20646;-79
2022/08/10 12:49:33;;;;;;;11.90;6.72;;;10.90;99.90;;;;;;5022121;28;20187;-76
2022/08/10 12:52:15;;;;;;;12.77;6.72;;;10.90;99.90;;;;;;5019950;28;20197;-88
2022/08/10 12:54:47;;;;;;;12.43;6.93;;;10.90;99.90;;;;;;5022248;28;20252;-79
2022/08/10 12:57:23;;;;;;;11.05;6.45;;;10.90;99.90;;;;;;5023222;28;20205;-80
2022/08/10 12:59:56;;;;;;;12.68;7.03;;;10.80;99.90;;;;;;5025752;28;20194;-77
2022/08/10 13:02:31;;;;;;;14.27;7.40;;;10.80;99.90;;;;;;5022845;28;20199;-78
2022/08/10 13:05:09;;;;;;;14.30;7.45;;;10.80;99.90;;;;;;5023198;28;20209;-79
2022/08/10 13:07:41;;;;;;;13.93;6.93;;;10.60;99.90;;;;;;5014368;28;20191;-77
2022/08/10 13:10:17;;;;;;;14.15;7.13;;;10.60;99.90;;;;;;5020761;28;20206;-76
2022/08/10 13:12:52;;;;;;;14.30;6.95;;;10.50;99.90;;;;;;5021932;28;20288;-76
2022/08/10 13:15:25;;;;;;;10.13;6.60;;;10.50;99.90;;;;;;5029748;28;20202;-78
2022/08/10 13:17:59;;;;;;;12.57;6.38;;;10.50;99.90;;;;;;5026861;28;20669;-76
2022/08/10 13:20:32;;;;;;;10.70;6.57;;;10.50;99.90;;;;;;5026058;28;20667;-77
2022/08/10 13:23:07;;;;;;;13.15;7.22;;;10.50;99.90;;;;;;5027049;28;20210;-76
2022/08/10 13:25:41;;;;;;;15.93;7.75;;;10.50;99.90;;;;;;5022885;28;20214;-76
2022/08/10 13:28:16;;;;;;;17.10;7.90;;;10.50;99.90;;;;;;5020163;28;20198;-77
2022/08/10 13:30:49;;;;;;;15.85;8.27;;;10.50;99.90;;;;;;5020732;28;20198;-76
2022/08/10 13:33:26;;;;;;;16.08;8.07;;;10.50;99.90;;;;;;5019568;28;20195;-76
2022/08/10 13:35:58;;;;;;;19.73;9.20;;;10.50;99.90;;;;;;5029365;28;20229;-77